Richton Park, Illinois
Current Conditions -  °F | °C
As of 11:55 AM on Friday 28 Nov 2014 (Local Time) from KIGQ Reporting Station
Scattered Clouds Scattered Clouds  
Wind Chill: 20°   Ceiling: Unl
Heat Index: 29°   Visibility: 10mi
Dew Point: 17°   Wind: 10mph
Humidity: 60%   Direction: 160°SSE
Pressure: 30.15"   Gusts: NA
Location:  41.48°N, 87.72°W
Report Text: KIGQ 281755Z AUTO 16009KT 10SM SCT019 SCT120 M02/M08 A3015 RMK AO2 T10171085 11015 21065
Loading
Personal Weather Stations






























Interactive Weather Map New forecast layout! Learn more

10-Day Weather Forecast

Advertisements
Track Severe Weather on mobile